Time,TemperatureF,DewpointF,PressureIn,WindDirection,WindDirectionDegrees,WindSpeedMPH,WindSpeedGustMPH,Humidity,HourlyPrecipIn,Conditions,Clouds,dailyrainin,SoftwareType,DateUTC
2013-02-22 00:01:00,69.3,66.6,30.01,SSE,155,0.0,0.0,91,0.00,,,0.00,Wunderground v.1.15,2013-02-22 05:01:00,
2013-02-22 00:05:00,69.3,66.6,30.01,SSE,161,0.0,0.0,91,0.00,,,0.00,Wunderground v.1.15,2013-02-22 05:05:00,
2013-02-22 00:11:00,69.1,66.4,30.01,SSE,161,0.0,0.0,91,0.00,,,0.00,Wunderground v.1.15,2013-02-22 05:11:00,
2013-02-22 00:12:00,69.1,66.4,30.01,SSE,161,0.0,0.0,91,0.00,,,0.00,Wunderground v.1.15,2013-02-22 05:12:00,
2013-02-22 00:17:00,68.9,66.2,30.01,SSE,161,0.0,0.0,91,0.00,,,0.00,Wunderground v.1.15,2013-02-22 05:17:00,
2013-02-22 00:23:00,68.8,66.4,30.01,SSE,161,0.0,0.0,92,0.00,,,0.00,Wunderground v.1.15,2013-02-22 05:23:00,
2013-02-22 00:29:00,68.6,66.2,30.01,SSE,161,0.0,0.0,92,0.00,,,0.00,Wunderground v.1.15,2013-02-22 05:29:00,
2013-02-22 00:35:00,68.4,66.0,30.01,SSE,161,0.0,0.0,92,0.00,,,0.00,Wunderground v.1.15,2013-02-22 05:35:00,
2013-02-22 00:40:00,68.3,65.9,30.01,SSE,161,0.0,0.0,92,0.00,,,0.00,Wunderground v.1.15,2013-02-22 05:40:00,
2013-02-22 00:46:00,68.1,65.7,30.00,SSE,161,0.0,0.0,92,0.00,,,0.00,Wunderground v.1.15,2013-02-22 05:46:00,
2013-02-22 00:52:00,67.9,65.5,30.00,SSE,161,0.0,0.0,92,0.00,,,0.00,Wunderground v.1.15,2013-02-22 05:52:00,
2013-02-22 00:58:00,67.8,65.4,30.00,SSE,161,0.0,0.0,92,0.00,,,0.00,Wunderground v.1.15,2013-02-22 05:58:00,
2013-02-22 01:03:00,67.8,65.4,30.00,SSE,161,0.0,0.0,92,0.00,,,0.00,Wunderground v.1.15,2013-02-22 06:03:00,
2013-02-22 01:09:00,67.6,65.5,30.00,SSE,161,0.0,0.0,93,0.00,,,0.00,Wunderground v.1.15,2013-02-22 06:09:00,
2013-02-22 01:14:00,67.4,65.3,30.00,SSE,161,0.0,0.0,93,0.00,,,0.00,Wunderground v.1.15,2013-02-22 06:14:00,
2013-02-22 01:20:00,67.3,65.2,30.00,SSE,161,0.0,0.0,93,0.00,,,0.00,Wunderground v.1.15,2013-02-22 06:20:00,
2013-02-22 01:26:00,67.1,65.0,30.00,SSE,161,0.0,0.0,93,0.00,,,0.00,Wunderground v.1.15,2013-02-22 06:26:00,
2013-02-22 01:32:00,66.9,64.8,30.00,SSE,161,0.0,0.0,93,0.00,,,0.00,Wunderground v.1.15,2013-02-22 06:32:00,
2013-02-22 01:38:00,66.8,64.7,30.00,SSE,161,0.0,0.0,93,0.00,,,0.00,Wunderground v.1.15,2013-02-22 06:38:00,
2013-02-22 01:43:00,66.6,64.8,30.00,SSE,161,0.0,0.0,94,0.00,,,0.00,Wunderground v.1.15,2013-02-22 06:43:00,
2013-02-22 01:49:00,66.4,64.6,29.99,SSE,161,0.0,0.0,94,0.00,,,0.00,Wunderground v.1.15,2013-02-22 06:49:00,
2013-02-22 01:55:00,66.3,64.5,29.99,SSE,161,0.0,0.0,94,0.00,,,0.00,Wunderground v.1.15,2013-02-22 06:55:00,
2013-02-22 02:01:00,66.1,64.3,29.99,SSE,161,0.0,0.0,94,0.00,,,0.00,Wunderground v.1.15,2013-02-22 07:01:00,
2013-02-22 02:06:00,66.0,64.2,29.99,SSE,161,0.0,0.0,94,0.00,,,0.00,Wunderground v.1.15,2013-02-22 07:06:00,
2013-02-22 02:11:00,65.8,64.0,29.99,SSE,161,0.0,0.0,94,0.00,,,0.00,Wunderground v.1.15,2013-02-22 07:11:00,
2013-02-22 02:17:00,65.6,63.8,29.99,SSE,161,0.0,0.0,94,0.00,,,0.00,Wunderground v.1.15,2013-02-22 07:17:00,
2013-02-22 02:22:00,65.5,63.7,29.99,SSE,161,0.0,0.0,94,0.00,,,0.00,Wunderground v.1.15,2013-02-22 07:22:00,
2013-02-22 02:27:00,65.5,64.0,29.99,SSE,161,0.0,0.0,95,0.00,,,0.00,Wunderground v.1.15,2013-02-22 07:27:00,
2013-02-22 02:33:00,65.3,63.8,29.99,SSE,161,0.0,0.0,95,0.00,,,0.00,Wunderground v.1.15,2013-02-22 07:33:00,
2013-02-22 02:38:00,65.2,63.7,29.99,SSE,161,0.0,0.0,95,0.00,,,0.00,Wunderground v.1.15,2013-02-22 07:38:00,
2013-02-22 02:43:00,65.0,63.5,29.99,SSE,161,0.0,0.0,95,0.00,,,0.00,Wunderground v.1.15,2013-02-22 07:43:00,
2013-02-22 02:48:00,64.8,63.3,29.99,SSE,161,0.0,0.0,95,0.00,,,0.00,Wunderground v.1.15,2013-02-22 07:48:00,
2013-02-22 02:53:00,64.7,63.2,29.99,SSE,161,0.0,0.0,95,0.00,,,0.00,Wunderground v.1.15,2013-02-22 07:53:00,
2013-02-22 02:58:00,64.5,63.0,29.99,SSE,161,0.0,0.0,95,0.00,,,0.00,Wunderground v.1.15,2013-02-22 07:58:00,
2013-02-22 03:03:00,64.3,62.8,29.99,SSE,161,0.0,0.0,95,0.00,,,0.00,Wunderground v.1.15,2013-02-22 08:03:00,
2013-02-22 03:08:00,64.2,62.7,29.99,SSE,161,0.0,0.0,95,0.00,,,0.00,Wunderground v.1.15,2013-02-22 08:08:00,
2013-02-22 03:14:00,64.0,62.5,29.99,SSE,161,0.0,0.0,95,0.00,,,0.00,Wunderground v.1.15,2013-02-22 08:14:00,
2013-02-22 03:19:00,63.9,62.4,29.99,SSE,161,0.0,0.0,95,0.00,,,0.00,Wunderground v.1.15,2013-02-22 08:19:00,
2013-02-22 03:24:00,63.9,62.4,29.99,SSE,161,0.0,0.0,95,0.00,,,0.00,Wunderground v.1.15,2013-02-22 08:24:00,
2013-02-22 03:29:00,63.7,62.2,29.98,SSE,161,0.0,0.0,95,0.00,,,0.00,Wunderground v.1.15,2013-02-22 08:29:00,
2013-02-22 03:34:00,63.5,62.0,29.98,SSE,161,0.0,0.0,95,0.00,,,0.00,Wunderground v.1.15,2013-02-22 08:34:00,
2013-02-22 03:40:00,63.4,61.9,29.98,SSE,161,0.0,0.0,95,0.00,,,0.00,Wunderground v.1.15,2013-02-22 08:40:00,
2013-02-22 03:45:00,63.4,61.9,29.98,SSE,161,0.0,0.0,95,0.00,,,0.00,Wunderground v.1.15,2013-02-22 08:45:00,
2013-02-22 03:50:00,63.4,61.9,29.98,SSE,161,0.0,0.0,95,0.00,,,0.00,Wunderground v.1.15,2013-02-22 08:50:00,
2013-02-22 03:55:00,63.2,62.0,29.98,SSE,161,0.0,0.0,96,0.00,,,0.00,Wunderground v.1.15,2013-02-22 08:55:00,
2013-02-22 04:00:00,63.2,62.0,29.98,SSE,161,0.0,0.0,96,0.00,,,0.00,Wunderground v.1.15,2013-02-22 09:00:00,
2013-02-22 04:05:00,63.1,61.9,29.98,SSE,161,0.0,0.0,96,0.00,,,0.00,Wunderground v.1.15,2013-02-22 09:05:00,
2013-02-22 04:10:00,62.9,61.7,29.98,SSE,161,0.0,0.0,96,0.00,,,0.00,Wunderground v.1.15,2013-02-22 09:10:00,
2013-02-22 04:16:00,62.7,61.5,29.98,SSE,161,0.0,0.0,96,0.00,,,0.00,Wunderground v.1.15,2013-02-22 09:16:00,
2013-02-22 04:21:00,62.6,61.4,29.98,SSE,161,0.0,0.0,96,0.00,,,0.00,Wunderground v.1.15,2013-02-22 09:21:00,
2013-02-22 04:26:00,62.4,61.2,29.98,SSE,161,0.0,0.0,96,0.00,,,0.00,Wunderground v.1.15,2013-02-22 09:26:00,
2013-02-22 04:31:00,62.4,61.2,29.98,SSE,161,0.0,0.0,96,0.00,,,0.00,Wunderground v.1.15,2013-02-22 09:31:00,
2013-02-22 04:36:00,62.3,61.1,29.98,SSE,161,0.0,0.0,96,0.00,,,0.00,Wunderground v.1.15,2013-02-22 09:36:00,
2013-02-22 04:42:00,62.1,60.9,29.98,SSE,161,0.0,0.0,96,0.00,,,0.00,Wunderground v.1.15,2013-02-22 09:42:00,
2013-02-22 04:47:00,62.1,60.9,29.99,SSE,161,0.0,0.0,96,0.00,,,0.00,Wunderground v.1.15,2013-02-22 09:47:00,
2013-02-22 04:52:00,62.1,60.9,29.99,SSE,161,0.0,0.0,96,0.00,,,0.00,Wunderground v.1.15,2013-02-22 09:52:00,
2013-02-22 04:57:00,62.0,60.8,29.99,SSE,161,0.0,0.0,96,0.00,,,0.00,Wunderground v.1.15,2013-02-22 09:57:00,
2013-02-22 05:02:00,61.8,60.6,29.99,SSE,161,0.0,0.0,96,0.00,,,0.00,Wunderground v.1.15,2013-02-22 10:02:00,
2013-02-22 05:07:00,61.8,60.6,29.99,SSE,161,0.0,0.0,96,0.00,,,0.00,Wunderground v.1.15,2013-02-22 10:07:00,
2013-02-22 05:12:00,61.6,60.4,29.99,SSE,161,0.0,0.0,96,0.00,,,0.00,Wunderground v.1.15,2013-02-22 10:12:00,
2013-02-22 05:17:00,61.6,60.4,30.00,SSE,161,0.0,0.0,96,0.00,,,0.00,Wunderground v.1.15,2013-02-22 10:17:00,
2013-02-22 05:22:00,61.5,60.6,30.00,SSE,161,0.0,0.0,97,0.00,,,0.00,Wunderground v.1.15,2013-02-22 10:22:00,
2013-02-22 05:28:00,61.5,60.6,30.00,SSE,161,0.0,0.0,97,0.00,,,0.00,Wunderground v.1.15,2013-02-22 10:28:00,
2013-02-22 05:33:00,61.3,60.4,30.00,SSE,161,0.0,0.0,97,0.00,,,0.00,Wunderground v.1.15,2013-02-22 10:33:00,
2013-02-22 05:38:00,61.3,60.4,30.00,SSE,161,0.0,0.0,97,0.00,,,0.00,Wunderground v.1.15,2013-02-22 10:38:00,
2013-02-22 05:43:00,61.2,60.3,30.00,SSE,161,0.0,0.0,97,0.00,,,0.00,Wunderground v.1.15,2013-02-22 10:43:00,
2013-02-22 05:48:00,61.2,60.3,30.01,SSE,161,0.0,0.0,97,0.00,,,0.00,Wunderground v.1.15,2013-02-22 10:48:00,
2013-02-22 05:53:00,61.0,60.1,30.01,SSE,161,0.0,0.0,97,0.00,,,0.00,Wunderground v.1.15,2013-02-22 10:53:00,
2013-02-22 05:58:00,60.9,60.0,30.01,SSE,161,0.0,0.0,97,0.00,,,0.00,Wunderground v.1.15,2013-02-22 10:58:00,
2013-02-22 06:03:00,60.9,60.0,30.01,SSE,161,0.0,0.0,97,0.00,,,0.00,Wunderground v.1.15,2013-02-22 11:03:00,
2013-02-22 06:08:00,60.7,59.8,30.01,SSE,161,0.0,0.0,97,0.00,,,0.00,Wunderground v.1.15,2013-02-22 11:08:00,
2013-02-22 06:13:00,60.7,59.8,30.01,SSE,161,0.0,0.0,97,0.00,,,0.00,Wunderground v.1.15,2013-02-22 11:13:00,
2013-02-22 06:18:00,60.7,59.8,30.01,SSE,161,0.0,0.0,97,0.00,,,0.00,Wunderground v.1.15,2013-02-22 11:18:00,
2013-02-22 06:23:00,60.7,59.8,30.01,SSE,161,0.0,0.0,97,0.00,,,0.00,Wunderground v.1.15,2013-02-22 11:23:00,
2013-02-22 06:29:00,60.5,59.6,30.01,SSE,161,0.0,0.0,97,0.00,,,0.00,Wunderground v.1.15,2013-02-22 11:29:00,
2013-02-22 06:34:00,60.5,59.6,30.01,SSE,161,0.0,0.0,97,0.00,,,0.00,Wunderground v.1.15,2013-02-22 11:34:00,
2013-02-22 06:39:00,60.4,59.5,30.01,SSE,161,0.0,0.0,97,0.00,,,0.00,Wunderground v.1.15,2013-02-22 11:39:00,
2013-02-22 06:44:00,60.4,59.5,30.02,SSE,161,0.0,0.0,97,0.00,,,0.00,Wunderground v.1.15,2013-02-22 11:44:00,
2013-02-22 06:50:00,60.4,59.5,30.02,SSE,161,0.0,0.0,97,0.00,,,0.00,Wunderground v.1.15,2013-02-22 11:50:00,
2013-02-22 06:55:00,60.4,59.5,30.02,SSE,161,0.0,0.0,97,0.00,,,0.00,Wunderground v.1.15,2013-02-22 11:55:00,
2013-02-22 07:00:00,60.4,59.5,30.03,SSE,161,0.0,0.0,97,0.00,,,0.00,Wunderground v.1.15,2013-02-22 12:00:00,
2013-02-22 07:05:00,60.4,59.5,30.03,SSE,161,0.0,0.0,97,0.00,,,0.00,Wunderground v.1.15,2013-02-22 12:05:00,
2013-02-22 07:10:00,60.4,59.5,30.03,SSE,161,0.0,0.0,97,0.00,,,0.00,Wunderground v.1.15,2013-02-22 12:10:00,
2013-02-22 07:15:00,60.4,59.8,30.03,SSE,161,0.0,0.0,98,0.00,,,0.00,Wunderground v.1.15,2013-02-22 12:15:00,
2013-02-22 07:20:00,60.5,59.9,30.03,SSE,161,0.0,0.0,98,0.00,,,0.00,Wunderground v.1.15,2013-02-22 12:20:00,
2013-02-22 07:25:00,60.9,60.3,30.03,SSE,161,0.0,0.0,98,0.00,,,0.00,Wunderground v.1.15,2013-02-22 12:25:00,
2013-02-22 07:31:00,61.2,60.6,30.03,SSE,161,0.0,0.0,98,0.00,,,0.00,Wunderground v.1.15,2013-02-22 12:31:00,
2013-02-22 07:36:00,61.3,60.7,30.03,SSE,161,0.0,0.0,98,0.00,,,0.00,Wunderground v.1.15,2013-02-22 12:36:00,
2013-02-22 07:41:00,62.0,61.7,30.03,SSE,161,0.0,0.0,99,0.00,,,0.00,Wunderground v.1.15,2013-02-22 12:41:00,
2013-02-22 07:46:00,62.3,62.0,30.03,SSE,161,0.0,0.0,99,0.00,,,0.00,Wunderground v.1.15,2013-02-22 12:46:00,
2013-02-22 07:51:00,62.7,62.4,30.03,SSE,161,0.0,0.0,99,0.00,,,0.00,Wunderground v.1.15,2013-02-22 12:51:00,
2013-02-22 07:56:00,63.5,63.5,30.03,SSE,161,0.0,0.0,100,0.00,,,0.00,Wunderground v.1.15,2013-02-22 12:56:00,
2013-02-22 08:01:00,64.3,64.3,30.04,SSE,161,0.0,0.0,100,0.00,,,0.00,Wunderground v.1.15,2013-02-22 13:01:00,
2013-02-22 08:06:00,65.2,65.2,30.04,SSE,161,0.0,0.0,100,0.00,,,0.00,Wunderground v.1.15,2013-02-22 13:06:00,
2013-02-22 08:12:00,66.0,66.0,30.04,SSE,161,0.0,0.0,100,0.00,,,0.00,Wunderground v.1.15,2013-02-22 13:12:00,
2013-02-22 08:17:00,66.9,66.9,30.04,South,169,0.0,0.0,100,0.00,,,0.00,Wunderground v.1.15,2013-02-22 13:17:00,
2013-02-22 08:22:00,68.1,68.1,30.04,SSE,165,0.0,0.0,100,0.00,,,0.00,Wunderground v.1.15,2013-02-22 13:22:00,
2013-02-22 08:27:00,68.8,68.8,30.04,SSE,160,0.0,0.0,100,0.00,,,0.00,Wunderground v.1.15,2013-02-22 13:27:00,
2013-02-22 08:32:00,69.4,69.4,30.04,SSE,167,0.0,4.0,100,0.00,,,0.00,Wunderground v.1.15,2013-02-22 13:32:00,
2013-02-22 08:38:00,69.8,69.8,30.04,South,171,3.0,4.0,100,0.00,,,0.00,Wunderground v.1.15,2013-02-22 13:38:00,
2013-02-22 08:43:00,70.1,70.1,30.04,South,175,0.0,3.0,100,0.00,,,0.00,Wunderground v.1.15,2013-02-22 13:43:00,
2013-02-22 08:48:00,70.6,70.6,30.05,SSE,163,0.0,8.0,100,0.00,,,0.00,Wunderground v.1.15,2013-02-22 13:48:00,
2013-02-22 08:53:00,71.1,70.8,30.05,SE,139,0.0,9.0,99,0.00,,,0.00,Wunderground v.1.15,2013-02-22 13:53:00,
2013-02-22 08:58:00,71.3,71.0,30.05,SW,214,0.0,9.0,99,0.00,,,0.00,Wunderground v.1.15,2013-02-22 13:58:00,
2013-02-22 09:03:00,71.8,71.2,30.05,SSE,167,0.0,5.0,98,0.00,,,0.00,Wunderground v.1.15,2013-02-22 14:03:00,
2013-02-22 09:08:00,72.1,71.2,30.05,SSE,167,0.0,7.0,97,0.00,,,0.00,Wunderground v.1.15,2013-02-22 14:08:00,
2013-02-22 09:14:00,72.5,71.3,30.05,SE,139,4.0,9.0,96,0.00,,,0.00,Wunderground v.1.15,2013-02-22 14:14:00,
2013-02-22 09:19:00,72.8,71.0,30.05,SSW,192,0.0,9.0,94,0.00,,,0.00,Wunderground v.1.15,2013-02-22 14:19:00,
2013-02-22 09:24:00,73.0,70.5,30.05,SSE,149,0.0,10.0,92,0.00,,,0.00,Wunderground v.1.15,2013-02-22 14:24:00,
2013-02-22 09:29:00,73.3,70.8,30.05,South,174,0.0,2.0,92,0.00,,,0.00,Wunderground v.1.15,2013-02-22 14:29:00,
2013-02-22 09:34:00,73.5,70.4,30.05,ESE,117,0.0,10.0,90,0.00,,,0.00,Wunderground v.1.15,2013-02-22 14:34:00,
2013-02-22 09:39:00,73.7,70.3,30.05,SW,231,6.0,6.0,89,0.00,,,0.00,Wunderground v.1.15,2013-02-22 14:39:00,
2013-02-22 09:44:00,74.0,69.9,30.05,SE,127,5.0,9.0,87,0.00,,,0.00,Wunderground v.1.15,2013-02-22 14:44:00,
2013-02-22 09:49:00,74.6,70.1,30.05,South,171,0.0,3.0,86,0.00,,,0.00,Wunderground v.1.15,2013-02-22 14:49:00,
2013-02-22 09:55:00,75.1,69.9,30.05,SSE,148,2.0,9.0,84,0.00,,,0.00,Wunderground v.1.15,2013-02-22 14:55:00,
2013-02-22 10:00:00,75.3,69.8,30.05,South,188,2.0,3.0,83,0.00,,,0.00,Wunderground v.1.15,2013-02-22 15:00:00,
2013-02-22 10:05:00,75.8,69.9,30.05,SE,128,2.0,7.0,82,0.00,,,0.00,Wunderground v.1.15,2013-02-22 15:05:00,
2013-02-22 10:10:00,76.0,69.7,30.05,SSE,160,0.0,2.0,81,0.00,,,0.00,Wunderground v.1.15,2013-02-22 15:10:00,
2013-02-22 10:15:00,76.0,69.4,30.06,South,182,0.0,6.0,80,0.00,,,0.00,Wunderground v.1.15,2013-02-22 15:15:00,
2013-02-22 10:20:00,75.8,69.2,30.06,SSE,163,2.0,2.0,80,0.00,,,0.00,Wunderground v.1.15,2013-02-22 15:20:00,
2013-02-22 10:25:00,75.6,69.4,30.06,South,169,2.0,7.0,81,0.00,,,0.00,Wunderground v.1.15,2013-02-22 15:25:00,
2013-02-22 10:30:00,75.4,69.2,30.06,SE,127,2.0,4.0,81,0.00,,,0.00,Wunderground v.1.15,2013-02-22 15:30:00,
2013-02-22 10:35:00,76.1,69.8,30.06,SE,146,0.0,8.0,81,0.00,,,0.00,Wunderground v.1.15,2013-02-22 15:35:00,
2013-02-22 10:40:00,77.0,70.0,30.06,SSW,197,0.0,5.0,79,0.00,,,0.00,Wunderground v.1.15,2013-02-22 15:40:00,
2013-02-22 10:45:00,77.6,69.8,30.06,ESE,109,0.0,6.0,77,0.00,,,0.00,Wunderground v.1.15,2013-02-22 15:45:00,
2013-02-22 10:50:00,77.0,69.2,30.06,SSE,155,5.0,12.0,77,0.00,,,0.00,Wunderground v.1.15,2013-02-22 15:50:00,
2013-02-22 10:56:00,76.5,69.5,30.06,East,82,3.0,12.0,79,0.00,,,0.00,Wunderground v.1.15,2013-02-22 15:56:00,
2013-02-22 11:01:00,76.3,69.3,30.05,SE,134,0.0,4.0,79,0.00,,,0.00,Wunderground v.1.15,2013-02-22 16:01:00,
2013-02-22 11:06:00,76.7,69.7,30.05,SSE,150,0.0,7.0,79,0.00,,,0.00,Wunderground v.1.15,2013-02-22 16:06:00,
2013-02-22 11:11:00,77.6,69.8,30.05,SE,126,2.0,10.0,77,0.00,,,0.00,Wunderground v.1.15,2013-02-22 16:11:00,
2013-02-22 11:16:00,78.1,69.9,30.04,SE,140,0.0,11.0,76,0.00,,,0.00,Wunderground v.1.15,2013-02-22 16:16:00,
2013-02-22 11:21:00,78.8,70.6,30.04,South,170,5.0,9.0,76,0.00,,,0.00,Wunderground v.1.15,2013-02-22 16:21:00,
2013-02-22 11:26:00,79.8,70.8,30.04,SE,133,0.0,9.0,74,0.00,,,0.00,Wunderground v.1.15,2013-02-22 16:26:00,
2013-02-22 11:31:00,80.1,70.3,30.04,ESE,103,1.0,3.0,72,0.00,,,0.00,Wunderground v.1.15,2013-02-22 16:31:00,
2013-02-22 11:36:00,80.1,69.8,30.04,SE,146,0.0,10.0,71,0.00,,,0.00,Wunderground v.1.15,2013-02-22 16:36:00,
2013-02-22 11:42:00,80.3,70.4,30.04,South,172,4.0,10.0,72,0.00,,,0.00,Wunderground v.1.15,2013-02-22 16:42:00,
2013-02-22 11:47:00,80.7,70.4,30.04,SE,124,0.0,12.0,71,0.00,,,0.00,Wunderground v.1.15,2013-02-22 16:47:00,
2013-02-22 11:52:00,80.7,70.0,30.04,South,189,4.0,6.0,70,0.00,,,0.00,Wunderground v.1.15,2013-02-22 16:52:00,
2013-02-22 11:57:00,80.5,70.6,30.04,East,93,0.0,10.0,72,0.00,,,0.00,Wunderground v.1.15,2013-02-22 16:57:00,
2013-02-22 12:02:00,80.9,70.6,30.03,SE,136,5.0,13.0,71,0.00,,,0.00,Wunderground v.1.15,2013-02-22 17:02:00,
2013-02-22 12:08:00,81.1,70.4,30.03,SE,126,2.0,13.0,70,0.00,,,0.00,Wunderground v.1.15,2013-02-22 17:08:00,
2013-02-22 12:13:00,81.4,70.2,30.03,SSE,152,0.0,10.0,69,0.00,,,0.00,Wunderground v.1.15,2013-02-22 17:13:00,
2013-02-22 12:18:00,81.8,70.6,30.03,SSE,164,4.0,11.0,69,0.00,,,0.00,Wunderground v.1.15,2013-02-22 17:18:00,
2013-02-22 12:23:00,82.0,70.8,30.03,SE,146,5.0,7.0,69,0.00,,,0.00,Wunderground v.1.15,2013-02-22 17:23:00,
2013-02-22 12:29:00,82.0,70.8,30.03,ESE,121,4.0,13.0,69,0.00,,,0.00,Wunderground v.1.15,2013-02-22 17:29:00,
2013-02-22 12:34:00,81.4,70.2,30.02,SE,133,0.0,14.0,69,0.00,,,0.00,Wunderground v.1.15,2013-02-22 17:34:00,
2013-02-22 12:39:00,81.1,70.8,30.02,SE,141,3.0,14.0,71,0.00,,,0.00,Wunderground v.1.15,2013-02-22 17:39:00,
2013-02-22 12:44:00,80.9,70.2,30.02,South,178,0.0,10.0,70,0.00,,,0.00,Wunderground v.1.15,2013-02-22 17:44:00,
2013-02-22 12:49:00,80.9,70.2,30.02,SE,125,6.0,12.0,70,0.00,,,0.00,Wunderground v.1.15,2013-02-22 17:49:00,
2013-02-22 12:54:00,80.7,70.4,30.02,SE,145,3.0,12.0,71,0.00,,,0.00,Wunderground v.1.15,2013-02-22 17:54:00,
2013-02-22 12:59:00,81.1,71.2,30.01,SSE,147,0.0,12.0,72,0.00,,,0.00,Wunderground v.1.15,2013-02-22 17:59:00,
2013-02-22 13:04:00,81.6,70.9,30.01,SE,138,6.0,9.0,70,0.00,,,0.00,Wunderground v.1.15,2013-02-22 18:04:00,
2013-02-22 13:09:00,81.4,71.1,30.01,SE,142,0.0,13.0,71,0.00,,,0.00,Wunderground v.1.15,2013-02-22 18:09:00,
2013-02-22 13:14:00,81.1,70.8,30.01,ESE,114,4.0,12.0,71,0.00,,,0.00,Wunderground v.1.15,2013-02-22 18:14:00,
2013-02-22 13:19:00,81.1,70.4,30.01,ESE,104,2.0,12.0,70,0.00,,,0.00,Wunderground v.1.15,2013-02-22 18:19:00,
2013-02-22 13:25:00,81.1,70.4,30.01,ESE,117,0.0,9.0,70,0.00,,,0.00,Wunderground v.1.15,2013-02-22 18:25:00,
2013-02-22 13:30:00,81.4,70.7,30.00,ENE,71,0.0,4.0,70,0.00,,,0.00,Wunderground v.1.15,2013-02-22 18:30:00,
2013-02-22 13:35:00,81.8,70.6,30.00,SE,129,3.0,10.0,69,0.00,,,0.00,Wunderground v.1.15,2013-02-22 18:35:00,
2013-02-22 13:40:00,82.0,71.2,30.00,NE,52,5.0,5.0,70,0.00,,,0.00,Wunderground v.1.15,2013-02-22 18:40:00,
2013-02-22 13:46:00,81.8,70.2,30.00,South,186,14.0,14.0,68,0.00,,,0.00,Wunderground v.1.15,2013-02-22 18:46:00,
2013-02-22 13:51:00,81.6,70.9,30.00,SE,127,1.0,11.0,70,0.00,,,0.00,Wunderground v.1.15,2013-02-22 18:51:00,
2013-02-22 13:56:00,81.4,71.1,30.00,SE,143,1.0,16.0,71,0.00,,,0.00,Wunderground v.1.15,2013-02-22 18:56:00,
2013-02-22 14:01:00,81.1,71.2,30.00,SE,143,10.0,14.0,72,0.00,,,0.00,Wunderground v.1.15,2013-02-22 19:01:00,
2013-02-22 14:06:00,80.9,71.0,30.00,SSE,147,0.0,14.0,72,0.00,,,0.00,Wunderground v.1.15,2013-02-22 19:06:00,
2013-02-22 14:11:00,81.2,71.7,30.00,East,98,0.0,4.0,73,0.00,,,0.00,Wunderground v.1.15,2013-02-22 19:11:00,
2013-02-22 14:16:00,81.6,71.3,29.99,ESE,115,3.0,10.0,71,0.00,,,0.00,Wunderground v.1.15,2013-02-22 19:16:00,
2013-02-22 14:21:00,81.2,70.9,29.99,SSE,163,3.0,7.0,71,0.00,,,0.00,Wunderground v.1.15,2013-02-22 19:21:00,
2013-02-22 14:27:00,80.5,70.6,29.99,SE,145,2.0,12.0,72,0.00,,,0.00,Wunderground v.1.15,2013-02-22 19:27:00,
2013-02-22 14:32:00,79.4,70.8,29.99,SSE,160,0.0,10.0,75,0.00,,,0.00,Wunderground v.1.15,2013-02-22 19:32:00,
2013-02-22 14:37:00,79.0,70.8,29.99,ESE,106,7.0,10.0,76,0.00,,,0.00,Wunderground v.1.15,2013-02-22 19:37:00,
2013-02-22 14:42:00,79.2,70.6,29.99,SE,141,13.0,13.0,75,0.00,,,0.00,Wunderground v.1.15,2013-02-22 19:42:00,
2013-02-22 14:48:00,79.6,71.0,29.99,SE,136,2.0,13.0,75,0.00,,,0.00,Wunderground v.1.15,2013-02-22 19:48:00,
2013-02-22 14:53:00,78.6,70.4,29.99,East,97,3.0,9.0,76,0.00,,,0.00,Wunderground v.1.15,2013-02-22 19:53:00,
2013-02-22 14:58:00,78.1,70.7,29.99,SE,141,4.0,9.0,78,0.00,,,0.00,Wunderground v.1.15,2013-02-22 19:58:00,
2013-02-22 15:03:00,78.1,71.1,29.98,ESE,117,0.0,11.0,79,0.00,,,0.00,Wunderground v.1.15,2013-02-22 20:03:00,
2013-02-22 15:08:00,77.7,70.3,29.98,SE,137,2.0,11.0,78,0.00,,,0.00,Wunderground v.1.15,2013-02-22 20:08:00,
2013-02-22 15:13:00,77.4,70.4,29.98,SSE,161,0.0,10.0,79,0.00,,,0.00,Wunderground v.1.15,2013-02-22 20:13:00,
2013-02-22 15:18:00,77.7,70.7,29.98,ESE,119,2.0,12.0,79,0.00,,,0.00,Wunderground v.1.15,2013-02-22 20:18:00,
2013-02-22 15:23:00,77.6,70.6,29.98,SSE,161,0.0,13.0,79,0.00,,,0.00,Wunderground v.1.15,2013-02-22 20:23:00,
2013-02-22 15:28:00,77.2,70.5,29.98,ESE,120,5.0,13.0,80,0.00,,,0.00,Wunderground v.1.15,2013-02-22 20:28:00,
2013-02-22 15:33:00,77.0,70.4,29.98,SE,139,4.0,7.0,80,0.00,,,0.00,Wunderground v.1.15,2013-02-22 20:33:00,
2013-02-22 15:38:00,76.7,70.4,29.98,ESE,123,0.0,10.0,81,0.00,,,0.00,Wunderground v.1.15,2013-02-22 20:38:00,
2013-02-22 15:43:00,76.7,70.4,29.98,ESE,106,0.0,3.0,81,0.00,,,0.00,Wunderground v.1.15,2013-02-22 20:43:00,
2013-02-22 15:48:00,77.0,70.7,29.98,SSE,167,6.0,10.0,81,0.00,,,0.00,Wunderground v.1.15,2013-02-22 20:48:00,
2013-02-22 15:54:00,77.4,70.4,29.98,SSE,167,2.0,11.0,79,0.00,,,0.00,Wunderground v.1.15,2013-02-22 20:54:00,
2013-02-22 15:59:00,77.7,70.7,29.98,ESE,113,2.0,11.0,79,0.00,,,0.00,Wunderground v.1.15,2013-02-22 20:59:00,
2013-02-22 16:04:00,77.9,70.5,29.98,ESE,113,4.0,13.0,78,0.00,,,0.00,Wunderground v.1.15,2013-02-22 21:04:00,
2013-02-22 16:09:00,78.1,70.7,29.98,SSE,162,0.0,14.0,78,0.00,,,0.00,Wunderground v.1.15,2013-02-22 21:09:00,
2013-02-22 16:15:00,78.1,70.7,29.98,South,188,0.0,9.0,78,0.00,,,0.00,Wunderground v.1.15,2013-02-22 21:15:00,
2013-02-22 16:20:00,77.9,70.1,29.98,SSE,160,8.0,8.0,77,0.00,,,0.00,Wunderground v.1.15,2013-02-22 21:20:00,
2013-02-22 16:25:00,77.7,69.9,29.98,East,98,3.0,9.0,77,0.00,,,0.00,Wunderground v.1.15,2013-02-22 21:25:00,
2013-02-22 16:30:00,77.4,70.4,29.97,SSE,150,0.0,3.0,79,0.00,,,0.00,Wunderground v.1.15,2013-02-22 21:30:00,
2013-02-22 16:35:00,77.2,70.2,29.97,SE,129,4.0,6.0,79,0.00,,,0.00,Wunderground v.1.15,2013-02-22 21:35:00,
2013-02-22 16:40:00,77.0,70.0,29.97,SSE,168,6.0,6.0,79,0.00,,,0.00,Wunderground v.1.15,2013-02-22 21:40:00,
2013-02-22 16:45:00,77.0,70.0,29.97,SSE,160,4.0,13.0,79,0.00,,,0.00,Wunderground v.1.15,2013-02-22 21:45:00,
2013-02-22 16:50:00,76.8,69.8,29.97,East,91,0.0,2.0,79,0.00,,,0.00,Wunderground v.1.15,2013-02-22 21:50:00,
2013-02-22 16:55:00,76.8,69.8,29.97,ESE,103,0.0,9.0,79,0.00,,,0.00,Wunderground v.1.15,2013-02-22 21:55:00,
2013-02-22 17:00:00,76.7,70.1,29.97,ESE,106,2.0,2.0,80,0.00,,,0.00,Wunderground v.1.15,2013-02-22 22:00:00,
2013-02-22 17:05:00,76.7,70.1,29.97,ENE,71,0.0,9.0,80,0.00,,,0.00,Wunderground v.1.15,2013-02-22 22:05:00,
2013-02-22 17:10:00,76.5,69.9,29.97,ENE,58,0.0,3.0,80,0.00,,,0.00,Wunderground v.1.15,2013-02-22 22:10:00,
2013-02-22 17:16:00,76.3,70.0,29.98,ENE,71,4.0,6.0,81,0.00,,,0.00,Wunderground v.1.15,2013-02-22 22:16:00,
2013-02-22 17:21:00,76.0,69.4,29.98,East,99,0.0,1.0,80,0.00,,,0.00,Wunderground v.1.15,2013-02-22 22:21:00,
2013-02-22 17:26:00,76.0,69.7,29.98,ESE,108,0.0,1.0,81,0.00,,,0.00,Wunderground v.1.15,2013-02-22 22:26:00,
2013-02-22 17:32:00,75.8,69.6,29.98,East,91,0.0,3.0,81,0.00,,,0.00,Wunderground v.1.15,2013-02-22 22:32:00,
2013-02-22 17:37:00,75.6,69.7,29.98,ESE,119,0.0,6.0,82,0.00,,,0.00,Wunderground v.1.15,2013-02-22 22:37:00,
2013-02-22 17:42:00,75.4,69.5,29.98,East,87,0.0,5.0,82,0.00,,,0.00,Wunderground v.1.15,2013-02-22 22:42:00,
2013-02-22 17:47:00,75.4,69.5,29.98,ESE,113,0.0,7.0,82,0.00,,,0.00,Wunderground v.1.15,2013-02-22 22:47:00,
2013-02-22 17:52:00,75.3,69.8,29.98,SE,134,0.0,2.0,83,0.00,,,0.00,Wunderground v.1.15,2013-02-22 22:52:00,
2013-02-22 17:57:00,75.3,69.8,29.98,South,177,0.0,6.0,83,0.00,,,0.00,Wunderground v.1.15,2013-02-22 22:57:00,
2013-02-22 18:02:00,75.1,69.6,29.98,SSE,168,0.0,6.0,83,0.00,,,0.00,Wunderground v.1.15,2013-02-22 23:02:00,
2013-02-22 18:07:00,75.1,69.6,29.98,ESE,120,0.0,6.0,83,0.00,,,0.00,Wunderground v.1.15,2013-02-22 23:07:00,
2013-02-22 18:12:00,74.9,69.4,29.98,East,96,0.0,1.0,83,0.00,,,0.00,Wunderground v.1.15,2013-02-22 23:12:00,
2013-02-22 18:17:00,74.9,69.4,29.98,East,96,0.0,1.0,83,0.00,,,0.00,Wunderground v.1.15,2013-02-22 23:17:00,
2013-02-22 18:23:00,74.7,69.2,29.98,ESE,110,0.0,0.0,83,0.00,,,0.00,Wunderground v.1.15,2013-02-22 23:23:00,
2013-02-22 18:28:00,74.6,69.1,29.98,ESE,117,0.0,0.0,83,0.00,,,0.00,Wunderground v.1.15,2013-02-22 23:28:00,
2013-02-22 18:33:00,74.4,68.9,29.98,ESE,117,0.0,0.0,83,0.00,,,0.00,Wunderground v.1.15,2013-02-22 23:33:00,
2013-02-22 18:38:00,74.2,68.7,29.98,ESE,115,0.0,0.0,83,0.00,,,0.00,Wunderground v.1.15,2013-02-22 23:38:00,
2013-02-22 18:43:00,74.0,68.9,29.98,SSE,158,0.0,3.0,84,0.00,,,0.00,Wunderground v.1.15,2013-02-22 23:43:00,
2013-02-22 18:48:00,74.0,68.9,29.99,SE,145,0.0,5.0,84,0.00,,,0.00,Wunderground v.1.15,2013-02-22 23:48:00,
2013-02-22 18:53:00,73.9,68.8,29.99,South,169,0.0,9.0,84,0.00,,,0.00,Wunderground v.1.15,2013-02-22 23:53:00,
2013-02-22 18:58:00,73.9,69.1,29.99,SE,145,0.0,9.0,85,0.00,,,0.00,Wunderground v.1.15,2013-02-22 23:58:00,
2013-02-22 19:03:00,74.0,69.2,29.99,SSE,158,0.0,4.0,85,0.00,,,0.00,Wunderground v.1.15,2013-02-23 00:03:00,
2013-02-22 19:09:00,74.0,69.2,29.99,SSE,164,2.0,4.0,85,0.00,,,0.00,Wunderground v.1.15,2013-02-23 00:09:00,
2013-02-22 19:14:00,74.0,69.2,30.00,SSE,154,0.0,6.0,85,0.00,,,0.00,Wunderground v.1.15,2013-02-23 00:14:00,
2013-02-22 19:19:00,73.9,69.4,30.00,SE,125,0.0,6.0,86,0.00,,,0.00,Wunderground v.1.15,2013-02-23 00:19:00,
2013-02-22 19:25:00,73.9,69.4,30.00,South,181,0.0,3.0,86,0.00,,,0.00,Wunderground v.1.15,2013-02-23 00:25:00,
2013-02-22 19:30:00,73.9,69.4,30.00,SE,139,0.0,0.0,86,0.00,,,0.00,Wunderground v.1.15,2013-02-23 00:30:00,
2013-02-22 19:35:00,73.9,69.8,30.00,SE,143,0.0,7.0,87,0.00,,,0.00,Wunderground v.1.15,2013-02-23 00:35:00,
2013-02-22 19:40:00,73.9,69.8,30.00,South,185,1.0,2.0,87,0.00,,,0.00,Wunderground v.1.15,2013-02-23 00:40:00,
2013-02-22 19:45:00,73.7,69.6,30.01,SSE,162,5.0,5.0,87,0.00,,,0.00,Wunderground v.1.15,2013-02-23 00:45:00,
2013-02-22 19:50:00,73.7,69.6,30.01,SE,142,9.0,9.0,87,0.00,,,0.00,Wunderground v.1.15,2013-02-23 00:50:00,
2013-02-22 19:55:00,73.7,69.6,30.01,SSE,156,0.0,11.0,87,0.00,,,0.00,Wunderground v.1.15,2013-02-23 00:55:00,
2013-02-22 20:00:00,73.7,69.6,30.01,SSE,164,6.0,7.0,87,0.00,,,0.00,Wunderground v.1.15,2013-02-23 01:00:00,
2013-02-22 20:05:00,73.7,69.6,30.01,SSE,150,4.0,11.0,87,0.00,,,0.00,Wunderground v.1.15,2013-02-23 01:05:00,
2013-02-22 20:10:00,73.5,69.4,30.01,SE,127,3.0,3.0,87,0.00,,,0.00,Wunderground v.1.15,2013-02-23 01:10:00,
2013-02-22 20:15:00,73.5,69.4,30.01,SSE,154,0.0,9.0,87,0.00,,,0.00,Wunderground v.1.15,2013-02-23 01:15:00,
2013-02-22 20:20:00,73.3,69.2,30.01,SE,144,6.0,6.0,87,0.00,,,0.00,Wunderground v.1.15,2013-02-23 01:20:00,
2013-02-22 20:25:00,73.3,69.2,30.01,SSE,162,0.0,11.0,87,0.00,,,0.00,Wunderground v.1.15,2013-02-23 01:25:00,
2013-02-22 20:30:00,73.3,69.2,30.01,South,178,9.0,11.0,87,0.00,,,0.00,Wunderground v.1.15,2013-02-23 01:30:00,
2013-02-22 20:35:00,73.2,69.1,30.01,SSE,154,0.0,11.0,87,0.00,,,0.00,Wunderground v.1.15,2013-02-23 01:35:00,
2013-02-22 20:40:00,73.2,69.1,30.01,SSE,164,0.0,6.0,87,0.00,,,0.00,Wunderground v.1.15,2013-02-23 01:40:00,
2013-02-22 20:46:00,73.0,69.2,30.01,SSE,163,2.0,9.0,88,0.00,,,0.00,Wunderground v.1.15,2013-02-23 01:46:00,
2013-02-22 20:51:00,73.0,69.2,30.01,SE,140,6.0,6.0,88,0.00,,,0.00,Wunderground v.1.15,2013-02-23 01:51:00,
2013-02-22 20:56:00,73.0,69.2,30.01,ESE,110,0.0,9.0,88,0.00,,,0.00,Wunderground v.1.15,2013-02-23 01:56:00,
2013-02-22 21:01:00,72.8,69.0,30.01,South,173,0.0,5.0,88,0.00,,,0.00,Wunderground v.1.15,2013-02-23 02:01:00,
2013-02-22 21:06:00,72.8,69.4,30.01,South,172,3.0,6.0,89,0.00,,,0.00,Wunderground v.1.15,2013-02-23 02:06:00,
2013-02-22 21:11:00,72.7,69.3,30.01,SE,143,0.0,3.0,89,0.00,,,0.00,Wunderground v.1.15,2013-02-23 02:11:00,
2013-02-22 21:16:00,72.7,69.6,30.01,SSE,150,0.0,5.0,90,0.00,,,0.00,Wunderground v.1.15,2013-02-23 02:16:00,
2013-02-22 21:21:00,72.7,69.6,30.01,SSE,150,0.0,4.0,90,0.00,,,0.00,Wunderground v.1.15,2013-02-23 02:21:00,
2013-02-22 21:26:00,72.5,69.4,30.01,SE,146,3.0,5.0,90,0.00,,,0.00,Wunderground v.1.15,2013-02-23 02:26:00,
2013-02-22 21:31:00,72.5,69.4,30.01,SSE,163,0.0,3.0,90,0.00,,,0.00,Wunderground v.1.15,2013-02-23 02:31:00,
2013-02-22 21:36:00,72.5,69.4,30.01,SSW,212,0.0,8.0,90,0.00,,,0.00,Wunderground v.1.15,2013-02-23 02:36:00,
2013-02-22 21:41:00,72.5,69.7,30.01,South,172,0.0,4.0,91,0.00,,,0.00,Wunderground v.1.15,2013-02-23 02:41:00,
2013-02-22 21:46:00,72.5,69.7,30.01,South,179,0.0,9.0,91,0.00,,,0.00,Wunderground v.1.15,2013-02-23 02:46:00,
2013-02-22 21:52:00,72.3,69.5,30.01,South,174,0.0,1.0,91,0.00,,,0.00,Wunderground v.1.15,2013-02-23 02:52:00,
2013-02-22 21:57:00,72.3,69.5,30.01,South,191,0.0,5.0,91,0.00,,,0.00,Wunderground v.1.15,2013-02-23 02:57:00,
2013-02-22 22:02:00,72.1,69.3,30.02,SSW,207,0.0,0.0,91,0.00,,,0.00,Wunderground v.1.15,2013-02-23 03:02:00,
2013-02-22 22:07:00,72.1,69.3,30.02,SW,214,4.0,4.0,91,0.00,,,0.00,Wunderground v.1.15,2013-02-23 03:07:00,
2013-02-22 22:12:00,72.0,69.2,30.02,SW,218,0.0,1.0,91,0.00,,,0.00,Wunderground v.1.15,2013-02-23 03:12:00,
2013-02-22 22:17:00,71.8,69.0,30.02,SW,217,0.0,1.0,91,0.00,,,0.00,Wunderground v.1.15,2013-02-23 03:17:00,
2013-02-22 22:22:00,71.8,69.0,30.02,SW,214,0.0,0.0,91,0.00,,,0.00,Wunderground v.1.15,2013-02-23 03:22:00,
2013-02-22 22:27:00,71.6,68.8,30.02,SW,214,0.0,0.0,91,0.00,,,0.00,Wunderground v.1.15,2013-02-23 03:27:00,
2013-02-22 22:32:00,71.5,69.1,30.02,SSW,203,0.0,0.0,92,0.00,,,0.00,Wunderground v.1.15,2013-02-23 03:32:00,
2013-02-22 22:37:00,71.3,68.9,30.02,SSW,203,0.0,1.0,92,0.00,,,0.00,Wunderground v.1.15,2013-02-23 03:37:00,
2013-02-22 22:42:00,71.1,68.7,30.02,SSW,203,0.0,0.0,92,0.00,,,0.00,Wunderground v.1.15,2013-02-23 03:42:00,
2013-02-22 22:47:00,71.1,68.7,30.02,SSW,203,0.0,0.0,92,0.00,,,0.00,Wunderground v.1.15,2013-02-23 03:47:00,
2013-02-22 22:52:00,70.9,68.5,30.02,SSW,203,0.0,0.0,92,0.00,,,0.00,Wunderground v.1.15,2013-02-23 03:52:00,
2013-02-22 22:57:00,70.8,68.4,30.02,SSW,203,0.0,0.0,92,0.00,,,0.00,Wunderground v.1.15,2013-02-23 03:57:00,
2013-02-22 23:02:00,70.6,68.2,30.02,SSW,203,0.0,0.0,92,0.00,,,0.00,Wunderground v.1.15,2013-02-23 04:02:00,
2013-02-22 23:07:00,70.4,68.0,30.02,SSW,203,0.0,0.0,92,0.00,,,0.00,Wunderground v.1.15,2013-02-23 04:07:00,
2013-02-22 23:13:00,70.3,67.9,30.02,SSW,203,0.0,0.0,92,0.00,,,0.00,Wunderground v.1.15,2013-02-23 04:13:00,
2013-02-22 23:18:00,70.1,68.0,30.01,SSW,203,0.0,0.0,93,0.00,,,0.00,Wunderground v.1.15,2013-02-23 04:18:00,
2013-02-22 23:23:00,69.9,67.8,30.01,SSW,203,0.0,0.0,93,0.00,,,0.00,Wunderground v.1.15,2013-02-23 04:23:00,
2013-02-22 23:28:00,69.8,67.7,30.01,SSW,203,0.0,0.0,93,0.00,,,0.00,Wunderground v.1.15,2013-02-23 04:28:00,
2013-02-22 23:33:00,69.8,67.7,30.01,SSW,203,0.0,0.0,93,0.00,,,0.00,Wunderground v.1.15,2013-02-23 04:33:00,
2013-02-22 23:38:00,69.6,67.5,30.01,SSW,203,0.0,0.0,93,0.00,,,0.00,Wunderground v.1.15,2013-02-23 04:38:00,
2013-02-22 23:43:00,69.4,67.3,30.01,SSW,203,0.0,0.0,93,0.00,,,0.00,Wunderground v.1.15,2013-02-23 04:43:00,
2013-02-22 23:48:00,69.3,67.5,30.01,SSW,203,0.0,0.0,94,0.00,,,0.00,Wunderground v.1.15,2013-02-23 04:48:00,
2013-02-22 23:53:00,69.3,67.5,30.01,SSW,203,0.0,0.0,94,0.00,,,0.00,Wunderground v.1.15,2013-02-23 04:53:00,
2013-02-22 23:58:00,69.1,67.3,30.01,SSW,203,0.0,0.0,94,0.00,,,0.00,Wunderground v.1.15,2013-02-23 04:58:00,